Mesquite, TX

4:18 AM CST on January 25, 2015 (GMT -0600)
Dallas Love | Change Station
CLOSE
Current Station
Airport
Location: Dallas Love,
Elevation: 486 ft
Nearby Weather Stations

Elev 486 ft 32.85 °N, 96.86 °W | Updated 25 minutes ago

Clear
Clear
44 °F
Feels Like 42 °F
N
4
Wind Variable Wind from SW

Today
High -- | Low -- °F
--% Chance of Precip.
Yesterday
High -- | Low -- °F
Precip. -- in
7:25 AM 5:52 PM
Waxing Crescent, 31% visible
Pressure 29.94 in
Visibility 10.0 miles
Clouds Few 25000 ft
Windchill 42 °F
Dew Point 35 °F
Humidity 71%
Rainfall 0.00 in
Snow Depth Not available.
UV 0 out of 12
Pollen 7.70 out of 12
Air Quality Not available.
Flu Activity Not available.
METAR KDAL 250953Z 23003KT 10SM FEW250 07/02 A2995 RMK AO2 SLP139 T00670017

More Conditions Fewer Conditions

Pressure 29.94 in
Visibility 10.0 miles
Clouds Few 25000 ft
Windchill 42 °F
Dew Point 35 °F
Humidity 71%
Rainfall 0.00 in
Snow Depth Not available.
UV 0 out of 12
Pollen 7.70 out of 12
Air Quality Not available.
Flu Activity Not available.
METAR KDAL 250953Z 23003KT 10SM FEW250 07/02 A2995 RMK AO2 SLP139 T00670017

More Conditions Fewer Conditions

10-Day Weather Forecast

Almanac

Astronomy

Jan. 25, 2015 Rise Set
Actual Time
Civil Twilight
Nautical Twilight
Astronomical Twilight
Moon
Length of Visible Light
Length of Day
Tomorrow will be .
, % of the Moon is Illuminated

Today's Extremes

State Highs State Lows

Community

WunderPhotos

Upload Photos

1,789,861 photos uploaded!

WunderBlogs® & News

Nearby

Air Quality

  Air Quality AQ Index Pollutant
Not available.

Snow Depth

Station Depth Elevation

Earthquake Activity

City Distance Mag. Time & Date
Minimum magnitude displayed is 2.5.

Coastal Water Temperatures

Place Temperature

Nearby Weather Stations